Time;durP1;ratioP1;P1;durP2;ratioP2;P2;SDS_P1;SDS_P2;PMS_P1;PMS_P2;Temp;Humidity;BMP_temperature;BMP_pressure;BME280_temperature;BME280_humidity;BME280_pressure;Samples;Min_cycle;Max_cycle;Signal;HPM_P1;HPM_P2
2022/03/07 00:01:55;;;;;;;14.93;6.88;;;;;;;-2.18;100.00;90428.88;5033936;28;20435;-72
2022/03/07 00:04:20;;;;;;;18.85;7.30;;;;;;;-2.09;100.00;90418.78;5033549;28;20052;-71
2022/03/07 00:06:49;;;;;;;17.38;6.78;;;;;;;-2.07;100.00;90423.75;5033871;28;20021;-71
2022/03/07 00:09:15;;;;;;;18.67;7.70;;;;;;;-1.96;100.00;90418.38;5033785;28;20029;-72
2022/03/07 00:11:42;;;;;;;22.02;8.55;;;;;;;-1.81;100.00;90428.97;5033636;28;20080;-69
2022/03/07 00:14:08;;;;;;;13.90;6.50;;;;;;;-1.92;100.00;90429.09;5033486;28;20039;-72
2022/03/07 00:16:33;;;;;;;17.05;7.25;;;;;;;-1.98;100.00;90423.06;5033354;28;20411;-71
2022/03/07 00:18:59;;;;;;;14.95;6.95;;;;;;;-2.02;100.00;90426.41;5016087;28;20029;-72
2022/03/07 00:21:25;;;;;;;15.25;7.07;;;;;;;-2.12;100.00;90414.84;5033557;28;20036;-72
2022/03/07 00:23:50;;;;;;;16.05;7.70;;;;;;;-2.21;100.00;90418.94;5033330;28;20479;-72
2022/03/07 00:26:17;;;;;;;18.58;7.63;;;;;;;-2.27;100.00;90422.50;5033319;28;20044;-72
2022/03/07 00:28:43;;;;;;;18.15;7.75;;;;;;;-2.11;100.00;90428.66;5033387;28;20033;-72
2022/03/07 00:31:09;;;;;;;17.65;7.22;;;;;;;-2.01;100.00;90422.78;5033337;28;20490;-72
2022/03/07 00:33:34;;;;;;;16.67;7.53;;;;;;;-2.01;100.00;90417.56;5033237;28;20030;-72
2022/03/07 00:36:00;;;;;;;16.08;6.80;;;;;;;-1.99;100.00;90405.84;5033305;28;20037;-72
2022/03/07 00:38:26;;;;;;;12.73;6.13;;;;;;;-1.74;100.00;90423.53;5033151;28;20025;-71
2022/03/07 00:40:51;;;;;;;12.60;6.88;;;;;;;-1.74;100.00;90414.94;5033137;28;20080;-70
2022/03/07 00:43:18;;;;;;;14.65;7.05;;;;;;;-1.80;100.00;90416.72;5032825;28;20076;-70
2022/03/07 00:45:44;;;;;;;18.95;8.88;;;;;;;-1.91;100.00;90409.81;5033060;28;20029;-71
2022/03/07 00:48:10;;;;;;;15.38;8.13;;;;;;;-1.92;100.00;90400.44;5033239;28;20048;-72
2022/03/07 00:50:42;;;;;;;17.20;9.07;;;;;;;-1.87;100.00;90413.53;5032935;28;20037;-72
2022/03/07 00:53:14;;;;;;;15.40;7.60;;;;;;;-1.84;100.00;90407.81;5032044;28;20492;-72
2022/03/07 00:55:40;;;;;;;17.17;7.75;;;;;;;-1.86;100.00;90405.47;5032917;28;20602;-72
2022/03/07 00:58:06;;;;;;;16.65;8.27;;;;;;;-1.85;100.00;90401.03;5032724;28;20109;-72
2022/03/07 01:00:36;;;;;;;21.27;9.25;;;;;;;-1.86;100.00;90400.25;5032742;28;20030;-72
2022/03/07 01:03:02;;;;;;;21.30;10.25;;;;;;;-1.91;100.00;90400.19;5015054;28;20026;-72
2022/03/07 01:05:27;;;;;;;20.10;9.38;;;;;;;-1.94;100.00;90402.50;5032623;28;20484;-71
2022/03/07 01:07:53;;;;;;;17.33;8.15;;;;;;;-1.89;100.00;90399.97;5032636;28;20048;-72
2022/03/07 01:10:18;;;;;;;16.92;8.38;;;;;;;-1.92;100.00;90390.78;5032487;28;20109;-71
2022/03/07 01:12:44;;;;;;;14.80;8.23;;;;;;;-1.87;100.00;90393.47;5032392;28;20036;-72
2022/03/07 01:15:10;;;;;;;16.08;7.70;;;;;;;-1.87;100.00;90397.88;5032154;28;20049;-72
2022/03/07 01:17:37;;;;;;;15.07;7.88;;;;;;;-1.87;100.00;90392.69;5170393;22;20008;-74
2022/03/07 01:20:07;;;;;;;17.65;7.72;;;;;;;-1.87;100.00;90390.84;5031837;28;20045;-66
2022/03/07 01:22:33;;;;;;;17.38;8.27;;;;;;;-1.86;100.00;90389.03;5014511;28;20025;-66
2022/03/07 01:24:58;;;;;;;16.88;8.18;;;;;;;-1.83;100.00;90398.97;5032238;28;20033;-66
2022/03/07 01:27:23;;;;;;;14.93;7.50;;;;;;;-1.88;100.00;90394.50;5032292;28;20084;-66
2022/03/07 01:29:49;;;;;;;14.52;7.38;;;;;;;-1.89;100.00;90392.16;5032113;28;20034;-66
2022/03/07 01:32:14;;;;;;;14.10;7.05;;;;;;;-1.89;100.00;90395.53;5032146;28;20025;-66
2022/03/07 01:34:40;;;;;;;14.15;7.40;;;;;;;-1.96;100.00;90391.53;5032113;28;20045;-66
2022/03/07 01:37:05;;;;;;;14.82;6.68;;;;;;;-2.00;100.00;90382.66;5032115;28;20040;-66
2022/03/07 01:39:31;;;;;;;14.50;7.13;;;;;;;-2.10;100.00;90385.94;5031837;28;20487;-66
2022/03/07 01:41:56;;;;;;;14.05;6.78;;;;;;;-2.04;100.00;90381.56;5032056;28;20025;-66
2022/03/07 01:44:25;;;;;;;15.52;7.35;;;;;;;-2.16;100.00;90384.31;5031849;28;20098;-66
2022/03/07 01:46:51;;;;;;;14.52;6.20;;;;;;;-1.99;100.00;90389.44;5031918;28;20112;-66
2022/03/07 01:49:18;;;;;;;15.48;7.05;;;;;;;-2.06;100.00;90387.00;5031784;28;20106;-66
2022/03/07 01:51:45;;;;;;;14.63;7.20;;;;;;;-2.04;100.00;90390.19;5031767;28;20029;-66
2022/03/07 01:54:14;;;;;;;13.48;6.75;;;;;;;-2.07;100.00;90387.25;5031811;28;20044;-65
2022/03/07 01:56:42;;;;;;;16.77;7.63;;;;;;;-2.14;100.00;90377.81;5031957;28;20040;-66
2022/03/07 01:59:11;;;;;;;14.25;7.03;;;;;;;-2.14;100.00;90383.03;5031608;28;20044;-66
2022/03/07 02:01:37;;;;;;;16.48;7.15;;;;;;;-2.23;100.00;90379.28;5031613;28;20029;-66
2022/03/07 02:04:03;;;;;;;14.18;7.07;;;;;;;-2.19;100.00;90388.22;5031559;28;20068;-66
2022/03/07 02:06:29;;;;;;;17.50;8.25;;;;;;;-2.17;100.00;90382.75;5031545;28;20061;-67
2022/03/07 02:08:56;;;;;;;15.45;7.97;;;;;;;-2.08;100.00;90391.69;5031434;28;20547;-66
2022/03/07 02:11:21;;;;;;;15.27;7.93;;;;;;;-2.02;100.00;90379.50;5031424;28;20039;-66
2022/03/07 02:13:47;;;;;;;16.10;7.78;;;;;;;-1.95;100.00;90393.13;5031291;28;20105;-66
2022/03/07 02:16:14;;;;;;;17.77;7.35;;;;;;;-1.95;100.00;90380.88;5031360;28;20033;-67
2022/03/07 02:18:40;;;;;;;9.95;6.22;;;;;;;-1.98;100.00;90386.56;5031098;28;20049;-66
2022/03/07 02:21:11;;;;;;;13.55;6.30;;;;;;;-2.12;100.00;90388.78;5031381;28;20032;-66
2022/03/07 02:23:37;;;;;;;14.27;6.90;;;;;;;-2.27;100.00;90373.00;5031255;28;20052;-66
2022/03/07 02:26:17;;;;;;;13.55;6.45;;;;;;;-2.25;100.00;90381.34;5031202;28;20406;-66
2022/03/07 02:28:45;;;;;;;11.70;6.57;;;;;;;-2.25;100.00;90381.34;5031076;28;20131;-66
2022/03/07 02:31:16;;;;;;;14.07;6.07;;;;;;;-2.28;100.00;90384.47;5030304;28;20511;-66
2022/03/07 02:33:42;;;;;;;16.17;7.20;;;;;;;-2.34;100.00;90382.84;5031259;28;20025;-66
2022/03/07 02:36:07;;;;;;;13.77;6.95;;;;;;;-2.36;100.00;90384.13;5031136;28;20514;-65
2022/03/07 02:38:32;;;;;;;12.43;6.15;;;;;;;-2.37;100.00;90382.53;5030994;28;20516;-66
2022/03/07 02:40:58;;;;;;;12.48;6.75;;;;;;;-2.38;100.00;90384.34;5031005;28;20171;-66
2022/03/07 02:43:23;;;;;;;13.27;7.18;;;;;;;-2.39;100.00;90385.38;5031012;28;20065;-66
2022/03/07 02:45:51;;;;;;;14.88;7.30;;;;;;;-2.36;100.00;90369.28;5031221;28;20033;-66
2022/03/07 02:48:16;;;;;;;12.50;5.40;;;;;;;-2.29;100.00;90382.88;5030855;28;20091;-67
2022/03/07 02:50:42;;;;;;;12.45;6.78;;;;;;;-2.27;100.00;90383.44;5030943;28;20052;-67
2022/03/07 02:53:07;;;;;;;15.43;6.93;;;;;;;-2.20;100.00;90378.81;5030897;28;20114;-67
2022/03/07 02:55:33;;;;;;;12.85;6.82;;;;;;;-2.13;100.00;90378.63;5031109;28;20029;-66
2022/03/07 02:57:59;;;;;;;15.13;7.32;;;;;;;-2.13;100.00;90373.41;5030851;28;20118;-66
2022/03/07 03:00:25;;;;;;;13.82;7.03;;;;;;;-2.06;100.00;90373.19;5030893;28;20033;-66
2022/03/07 03:02:50;;;;;;;12.77;6.72;;;;;;;-2.04;100.00;90374.53;5030880;28;20038;-66
2022/03/07 03:05:16;;;;;;;14.98;7.82;;;;;;;-1.98;100.00;90380.56;5030847;28;20048;-67
2022/03/07 03:07:41;;;;;;;14.63;7.55;;;;;;;-1.97;100.00;90377.72;5030705;28;20029;-67
2022/03/07 03:10:07;;;;;;;15.57;7.60;;;;;;;-1.99;100.00;90373.78;5030747;28;20024;-67
2022/03/07 03:12:33;;;;;;;13.95;7.03;;;;;;;-2.03;100.00;90372.72;5030738;28;20347;-66
2022/03/07 03:14:58;;;;;;;10.90;6.55;;;;;;;-2.05;100.00;90374.75;5030670;28;20025;-66
2022/03/07 03:17:25;;;;;;;13.73;6.80;;;;;;;-1.95;100.00;90382.69;5033598;28;20025;-66
2022/03/07 03:19:50;;;;;;;14.48;7.30;;;;;;;-1.88;100.00;90383.28;5034447;28;20498;-65
2022/03/07 03:22:16;;;;;;;16.30;7.70;;;;;;;-1.86;100.00;90378.59;5034680;28;20041;-66
2022/03/07 03:24:41;;;;;;;19.08;9.35;;;;;;;-1.84;100.00;90382.53;5034584;28;20021;-66
2022/03/07 03:27:07;;;;;;;21.40;10.02;;;;;;;-1.87;100.00;90383.03;5034528;28;20022;-66
2022/03/07 03:29:32;;;;;;;20.63;9.43;;;;;;;-1.85;100.00;90377.56;5034361;28;20566;-66
2022/03/07 03:31:58;;;;;;;17.70;8.23;;;;;;;-1.90;100.00;90369.69;5034425;28;20534;-66
2022/03/07 03:34:25;;;;;;;15.77;7.50;;;;;;;-1.82;100.00;90384.88;5034318;28;20414;-65
2022/03/07 03:36:50;;;;;;;12.18;6.82;;;;;;;-1.90;100.00;90372.28;5034626;28;20076;-66
2022/03/07 03:39:16;;;;;;;11.52;6.43;;;;;;;-1.98;100.00;90376.16;5034447;28;20135;-65
2022/03/07 03:41:42;;;;;;;11.35;6.50;;;;;;;-1.93;100.00;90378.00;5034456;28;20112;-66
2022/03/07 03:44:08;;;;;;;14.02;6.72;;;;;;;-1.90;100.00;90372.28;5034187;28;20560;-66
2022/03/07 03:46:33;;;;;;;14.07;7.45;;;;;;;-1.87;100.00;90384.84;5034115;28;20033;-66
2022/03/07 03:48:59;;;;;;;19.70;9.30;;;;;;;-1.86;100.00;90384.59;5034038;28;20086;-65
2022/03/07 03:51:24;;;;;;;21.88;10.73;;;;;;;-1.87;100.00;90377.81;5034044;28;20108;-65
2022/03/07 03:53:50;;;;;;;20.88;10.80;;;;;;;-1.81;100.00;90384.63;5033925;28;20025;-66
2022/03/07 03:56:15;;;;;;;20.50;11.05;;;;;;;-1.84;100.00;90379.94;5033986;28;20052;-66
2022/03/07 03:58:40;;;;;;;20.95;10.75;;;;;;;-1.81;100.00;90382.03;5034038;28;20472;-66
2022/03/07 04:01:06;;;;;;;34.65;16.13;;;;;;;-1.81;100.00;90381.25;5033912;28;20460;-66
2022/03/07 04:03:31;;;;;;;38.53;16.83;;;;;;;-1.89;100.00;90382.50;5033830;28;20032;-66
2022/03/07 04:05:57;;;;;;;33.30;16.42;;;;;;;-1.83;100.00;90372.91;5033997;28;20032;-66
2022/03/07 04:08:28;;;;;;;40.70;17.30;;;;;;;-1.81;100.00;90370.81;5033671;28;20029;-66
2022/03/07 04:10:54;;;;;;;33.80;15.38;;;;;;;-1.78;100.00;90369.53;5032419;28;20032;-66
2022/03/07 04:13:19;;;;;;;36.60;18.60;;;;;;;-1.84;100.00;90382.53;5033307;28;20021;-66
2022/03/07 04:15:44;;;;;;;35.67;16.58;;;;;;;-1.86;100.00;90389.03;5033713;28;20092;-66
2022/03/07 04:18:10;;;;;;;35.05;15.98;;;;;;;-1.83;100.00;90391.13;5033331;28;20072;-66
2022/03/07 04:20:35;;;;;;;38.08;16.30;;;;;;;-1.84;100.00;90382.53;5033665;28;20557;-66
2022/03/07 04:23:01;;;;;;;31.40;16.02;;;;;;;-1.83;100.00;90378.91;5033447;28;20080;-66
2022/03/07 04:25:27;;;;;;;36.80;16.90;;;;;;;-1.84;100.00;90381.75;5033280;28;20029;-67
2022/03/07 04:27:53;;;;;;;37.17;17.42;;;;;;;-1.83;100.00;90373.69;5032029;28;20036;-67
2022/03/07 04:30:19;;;;;;;34.00;16.55;;;;;;;-1.76;100.00;90383.88;5033383;28;20040;-67
2022/03/07 04:32:45;;;;;;;36.42;17.50;;;;;;;-1.79;100.00;90373.97;5033346;28;20506;-66
2022/03/07 04:35:11;;;;;;;37.78;17.27;;;;;;;-1.74;100.00;90379.22;5033221;28;20207;-67
2022/03/07 04:37:40;;;;;;;27.50;14.05;;;;;;;-1.72;100.00;90365.94;5033146;28;20026;-66
2022/03/07 04:40:10;;;;;;;20.48;11.63;;;;;;;-1.79;100.00;90373.97;5033137;28;20029;-66
2022/03/07 04:42:35;;;;;;;24.67;11.85;;;;;;;-1.86;100.00;90373.41;5033058;28;20029;-66
2022/03/07 04:45:01;;;;;;;24.55;11.13;;;;;;;-1.89;100.00;90361.66;5015162;28;20025;-67
2022/03/07 04:47:26;;;;;;;13.93;8.10;;;;;;;-1.81;100.00;90355.97;5032849;28;20125;-66
2022/03/07 04:49:52;;;;;;;12.13;7.03;;;;;;;-1.73;100.00;90372.19;5032977;28;20026;-66
2022/03/07 04:52:17;;;;;;;13.80;6.70;;;;;;;-1.65;100.00;90369.13;5032935;28;20087;-66
2022/03/07 04:54:42;;;;;;;17.42;7.53;;;;;;;-1.55;100.00;90372.59;5032793;28;20104;-67
2022/03/07 04:57:08;;;;;;;17.65;9.25;;;;;;;-1.59;100.00;90355.88;5032814;28;20111;-68
2022/03/07 04:59:33;;;;;;;17.98;9.70;;;;;;;-1.62;100.00;90368.63;5032763;28;20411;-67
2022/03/07 05:01:59;;;;;;;26.60;13.60;;;;;;;-1.71;100.00;90370.91;5032737;28;20490;-67
2022/03/07 05:04:24;;;;;;;27.70;14.13;;;;;;;-1.71;100.00;90370.13;5032635;28;20097;-66
2022/03/07 05:06:50;;;;;;;33.28;15.95;;;;;;;-1.83;100.00;90375.50;5032820;28;20500;-66
2022/03/07 05:09:15;;;;;;;27.67;13.43;;;;;;;-1.87;100.00;90377.81;5014693;28;20040;-66
2022/03/07 05:11:41;;;;;;;33.63;16.27;;;;;;;-1.81;100.00;90370.81;5032457;28;20171;-66
2022/03/07 05:14:06;;;;;;;29.40;15.30;;;;;;;-1.90;100.00;90361.88;5032395;28;20104;-66
2022/03/07 05:16:32;;;;;;;35.45;19.55;;;;;;;-1.87;100.00;90380.44;5032422;28;20032;-65
2022/03/07 05:18:57;;;;;;;33.92;16.95;;;;;;;-1.86;100.00;90371.56;5032042;28;20104;-66
2022/03/07 05:21:23;;;;;;;35.00;19.38;;;;;;;-1.85;100.00;90373.16;5032132;28;20068;-65
2022/03/07 05:23:48;;;;;;;43.13;22.90;;;;;;;-1.89;100.00;90373.91;5032480;28;20033;-66
2022/03/07 05:26:14;;;;;;;35.70;17.83;;;;;;;-1.81;100.00;90366.41;5032167;28;20021;-66
2022/03/07 05:28:39;;;;;;;38.80;18.40;;;;;;;-1.72;100.00;90371.16;5032241;28;20028;-66
2022/03/07 05:31:05;;;;;;;37.92;17.40;;;;;;;-1.71;100.00;90372.75;5032095;28;20017;-66
2022/03/07 05:33:31;;;;;;;37.17;18.00;;;;;;;-1.78;100.00;90372.94;5032208;28;20032;-66
2022/03/07 05:35:56;;;;;;;39.10;19.02;;;;;;;-1.62;100.00;90373.84;5031646;28;20022;-66
2022/03/07 05:38:21;;;;;;;47.30;23.15;;;;;;;-1.63;100.00;90373.06;5023129;28;20026;-65
2022/03/07 05:40:47;;;;;;;64.03;33.28;;;;;;;-1.65;100.00;90377.72;4994100;28;20402;-64
2022/03/07 05:43:13;;;;;;;42.97;23.27;;;;;;;-1.60;100.00;90362.13;5011814;28;20129;-65
2022/03/07 05:45:38;;;;;;;51.80;26.23;;;;;;;-1.68;100.00;90367.03;5011458;28;20029;-65
2022/03/07 05:48:04;;;;;;;53.55;26.35;;;;;;;-1.53;100.00;90375.75;5011737;28;20423;-65
2022/03/07 05:50:30;;;;;;;59.47;28.67;;;;;;;-1.38;100.00;90369.06;5011747;28;20456;-65
2022/03/07 05:52:55;;;;;;;34.83;16.65;;;;;;;-1.38;100.00;90374.28;5011821;28;20037;-65
2022/03/07 05:55:21;;;;;;;33.33;16.67;;;;;;;-1.28;100.00;90364.69;5011534;28;20109;-66
2022/03/07 05:57:46;;;;;;;35.33;16.88;;;;;;;-1.37;100.00;90365.41;5011549;28;20084;-66
2022/03/07 06:00:12;;;;;;;70.60;39.20;;;;;;;-1.41;100.00;90364.34;5011278;28;20084;-65
2022/03/07 06:02:39;;;;;;;63.58;31.08;;;;;;;-1.26;100.00;90367.84;5011469;28;20084;-65
2022/03/07 06:05:05;;;;;;;67.13;38.08;;;;;;;-1.28;100.00;90371.72;4993960;28;20029;-64
2022/03/07 06:07:31;;;;;;;43.88;23.17;;;;;;;-1.15;100.00;90368.69;4977755;28;20052;-65
2022/03/07 06:09:56;;;;;;;32.33;16.98;;;;;;;-1.15;100.00;90376.50;5011401;28;20488;-64
2022/03/07 06:12:22;;;;;;;32.08;16.00;;;;;;;-0.98;100.00;90377.13;5020891;28;20041;-65
2022/03/07 06:14:48;;;;;;;25.85;13.90;;;;;;;-0.69;100.00;90374.16;5030106;28;20025;-65
2022/03/07 06:17:13;;;;;;;40.17;22.52;;;;;;;-0.70;100.00;90372.56;5031029;28;20022;-65
2022/03/07 06:19:38;;;;;;;33.17;17.52;;;;;;;-0.75;100.00;90372.56;5013141;28;20057;-65
2022/03/07 06:22:04;;;;;;;31.52;17.38;;;;;;;-0.57;100.00;90372.13;5031068;28;20029;-64
2022/03/07 06:24:29;;;;;;;31.92;17.25;;;;;;;-0.34;100.00;90368.25;5031010;28;20402;-64
2022/03/07 06:26:58;;;;;;;27.75;17.23;;;;;;;-0.12;100.00;90376.72;5031001;28;20172;-65
2022/03/07 06:29:23;;;;;;;26.90;15.98;;;;;;;-0.11;100.00;90372.25;5030535;28;20554;-65
2022/03/07 06:31:49;;;;;;;37.30;17.98;;;;;;;-0.19;100.00;90381.38;5013150;28;20048;-65
2022/03/07 06:34:15;;;;;;;53.13;24.48;;;;;;;-0.29;100.00;90385.81;5030889;28;20475;-64
2022/03/07 06:36:41;;;;;;;41.38;21.55;;;;;;;-0.27;100.00;90386.34;5030869;28;20052;-65
2022/03/07 06:39:06;;;;;;;38.72;20.33;;;;;;;-0.16;100.00;90390.53;5030796;28;20022;-66
2022/03/07 06:41:32;;;;;;;33.10;18.60;;;;;;;0.21;100.00;90382.53;5030735;28;20153;-65
2022/03/07 06:43:59;;;;;;;41.95;22.95;;;;;;;0.18;100.00;90383.84;5030348;28;20392;-65
2022/03/07 06:46:25;;;;;;;34.10;19.38;;;;;;;0.20;100.00;90376.50;5030844;28;20028;-66
2022/03/07 06:48:50;;;;;;;46.20;26.48;;;;;;;-0.13;100.00;90380.38;5030617;28;20469;-65
2022/03/07 06:51:18;;;;;;;44.42;25.52;;;;;;;-0.07;100.00;90378.53;5029972;28;20499;-65
2022/03/07 06:53:44;;;;;;;37.88;23.52;;;;;;;-0.09;100.00;90378.00;5030887;28;20033;-65
2022/03/07 06:56:10;;;;;;;44.75;25.90;;;;;;;-0.34;100.00;90383.94;5030675;28;20391;-65
2022/03/07 06:58:35;;;;;;;46.92;27.58;;;;;;;-0.27;100.00;90388.94;5030237;28;20039;-66
2022/03/07 07:01:01;;;;;;;46.85;28.25;;;;;;;-0.63;100.00;90370.53;5030998;28;20025;-65
2022/03/07 07:03:26;;;;;;;39.03;21.65;;;;;;;-0.53;100.00;90398.50;5030705;28;20409;-65
2022/03/07 07:05:52;;;;;;;27.70;15.65;;;;;;;-0.35;100.00;90393.63;5030649;28;20076;-65
2022/03/07 07:08:18;;;;;;;44.65;18.63;;;;;;;-0.45;100.00;90390.97;5030487;28;20415;-65
2022/03/07 07:10:44;;;;;;;45.67;23.40;;;;;;;-0.36;100.00;90392.03;5030468;28;20061;-63
2022/03/07 07:13:14;;;;;;;82.78;37.45;;;;;;;-0.41;100.00;90389.41;5029911;28;20064;-64
2022/03/07 07:15:40;;;;;;;46.70;22.25;;;;;;;-0.03;100.00;90395.28;5030459;28;20035;-65
2022/03/07 07:18:06;;;;;;;28.60;16.35;;;;;;;0.15;100.00;90392.16;5029997;28;20050;-65
2022/03/07 07:20:31;;;;;;;31.27;18.67;;;;;;;0.45;100.00;90399.28;5030388;28;20407;-65
2022/03/07 07:22:57;;;;;;;40.63;20.42;;;;;;;0.54;100.00;90392.50;5030412;28;20029;-65
2022/03/07 07:25:22;;;;;;;40.78;19.98;;;;;;;1.05;100.00;90395.06;5030339;28;20045;-64
2022/03/07 07:27:47;;;;;;;49.50;25.70;;;;;;;1.47;100.00;90399.97;5030099;28;20028;-65
2022/03/07 07:30:13;;;;;;;33.15;18.33;;;;;;;1.60;100.00;90384.75;5030110;28;20124;-64
2022/03/07 07:32:39;;;;;;;27.35;15.10;;;;;;;2.17;100.00;90388.66;5030408;28;20040;-64
2022/03/07 07:35:06;;;;;;;16.00;10.07;;;;;;;2.99;100.00;90393.06;5030149;28;20021;-65
2022/03/07 07:37:31;;;;;;;13.25;10.10;;;;;;;2.74;100.00;90379.38;5030065;28;20033;-64
2022/03/07 07:39:56;;;;;;;16.98;11.68;;;;;;;3.24;100.00;90392.06;5012488;28;20325;-64
2022/03/07 07:42:22;;;;;;;15.35;9.32;;;;;;;4.07;100.00;90393.53;5030181;28;20036;-64
2022/03/07 07:44:48;;;;;;;19.02;10.30;;;;;;;4.39;99.72;90395.50;5011912;28;20198;-64
2022/03/07 07:47:13;;;;;;;15.48;9.65;;;;;;;4.20;92.53;90390.22;5029972;28;20021;-65
2022/03/07 07:49:45;;;;;;;16.80;10.45;;;;;;;3.35;98.07;90392.78;5030026;28;20033;-65
2022/03/07 07:52:12;;;;;;;95.22;52.85;;;;;;;3.43;100.00;90394.00;5011995;28;20577;-65
2022/03/07 07:54:38;;;;;;;14.68;9.65;;;;;;;3.79;100.00;90383.91;5029844;28;20118;-64
2022/03/07 07:57:05;;;;;;;8.38;6.65;;;;;;;4.36;94.58;90388.16;5029730;28;20522;-63
2022/03/07 07:59:31;;;;;;;12.10;8.95;;;;;;;4.35;93.34;90388.47;5029260;28;20112;-64
2022/03/07 08:01:56;;;;;;;12.70;9.10;;;;;;;4.55;90.02;90397.91;5030317;28;20115;-64
2022/03/07 08:04:22;;;;;;;15.30;10.63;;;;;;;4.11;88.28;90396.41;5033372;28;20028;-64
2022/03/07 08:06:47;;;;;;;11.32;7.43;;;;;;;3.73;92.30;90396.31;5033201;28;20349;-64
2022/03/07 08:09:13;;;;;;;16.42;11.20;;;;;;;3.44;94.66;90391.09;5033101;28;20044;-64
2022/03/07 08:11:38;;;;;;;10.95;7.50;;;;;;;2.74;96.29;90400.38;5033095;28;20025;-64
2022/03/07 08:14:04;;;;;;;10.13;6.70;;;;;;;2.82;100.00;90394.53;5032576;28;20026;-64
2022/03/07 08:16:29;;;;;;;11.75;7.20;;;;;;;3.57;97.06;90400.94;5033279;28;20079;-64
2022/03/07 08:18:54;;;;;;;8.32;5.55;;;;;;;2.92;95.35;90389.22;5000662;28;20038;-64
2022/03/07 08:21:25;;;;;;;13.05;7.70;;;;;;;2.77;100.00;90402.47;4993717;28;20041;-64
2022/03/07 08:23:52;;;;;;;19.77;11.10;;;;;;;3.19;99.83;90394.75;4993578;28;20034;-64
2022/03/07 08:26:17;;;;;;;7.65;5.32;;;;;;;3.37;95.25;90400.38;4993675;28;20027;-64
2022/03/07 08:28:43;;;;;;;16.92;10.25;;;;;;;3.55;97.02;90404.91;4993117;28;20032;-64
2022/03/07 08:31:08;;;;;;;32.65;20.02;;;;;;;3.47;94.66;90405.50;4993501;28;20030;-64
2022/03/07 08:33:34;;;;;;;21.38;13.85;;;;;;;3.16;99.14;90407.66;4993318;28;20077;-64
2022/03/07 08:35:59;;;;;;;33.50;20.33;;;;;;;3.99;98.89;90404.69;4993394;28;20042;-65
2022/03/07 08:38:25;;;;;;;24.23;15.00;;;;;;;3.47;97.86;90400.25;4992101;28;20053;-64
2022/03/07 08:40:51;;;;;;;45.85;25.58;;;;;;;3.68;97.16;90403.47;4993390;28;20026;-64
2022/03/07 08:43:16;;;;;;;38.13;24.23;;;;;;;3.30;100.00;90396.22;4992881;28;20034;-64
2022/03/07 08:45:42;;;;;;;48.67;29.70;;;;;;;3.42;100.00;90408.19;4993348;28;20033;-64
2022/03/07 08:48:07;;;;;;;24.63;15.60;;;;;;;3.08;100.00;90403.00;4993229;28;20118;-64
2022/03/07 08:50:32;;;;;;;49.60;25.85;;;;;;;3.41;100.00;90407.41;4993251;28;20108;-64
2022/03/07 08:52:58;;;;;;;30.80;17.50;;;;;;;3.00;100.00;90401.75;4993327;28;20479;-64
2022/03/07 08:55:24;;;;;;;28.65;17.83;;;;;;;3.07;100.00;90407.47;4992817;28;20149;-64
2022/03/07 08:57:49;;;;;;;19.25;13.15;;;;;;;3.24;100.00;90405.22;4991963;28;20041;-64
2022/03/07 09:00:15;;;;;;;38.10;23.98;;;;;;;3.37;100.00;90409.03;4993125;28;20030;-64
2022/03/07 09:02:40;;;;;;;20.25;12.98;;;;;;;3.49;100.00;90403.41;4992870;28;20030;-63
2022/03/07 09:05:06;;;;;;;14.30;10.32;;;;;;;3.83;97.59;90404.09;4993150;28;20488;-62
2022/03/07 09:07:32;;;;;;;23.55;14.23;;;;;;;3.92;97.79;90402.41;4993235;28;20104;-62
2022/03/07 09:09:58;;;;;;;20.45;13.63;;;;;;;3.43;100.00;90409.78;4992976;28;20451;-60
2022/03/07 09:12:27;;;;;;;37.38;20.55;;;;;;;3.79;100.00;90399.69;4992603;28;20030;-63
2022/03/07 09:14:56;;;;;;;24.13;14.77;;;;;;;3.20;100.00;90406.84;4992405;28;20030;-62
2022/03/07 09:17:21;;;;;;;32.95;20.52;;;;;;;3.49;100.00;90419.19;4992732;28;20034;-61
2022/03/07 09:19:46;;;;;;;30.60;18.60;;;;;;;3.78;100.00;90403.34;5029072;28;20050;-62
2022/03/07 09:22:12;;;;;;;17.25;11.15;;;;;;;3.55;100.00;90416.22;5032062;28;20495;-62
2022/03/07 09:24:37;;;;;;;33.03;19.77;;;;;;;3.00;100.00;90423.56;5031853;28;20168;-61
2022/03/07 09:27:03;;;;;;;25.40;13.63;;;;;;;2.68;100.00;90404.88;5031292;28;20518;-61
2022/03/07 09:29:30;;;;;;;47.35;27.75;;;;;;;2.83;100.00;90407.38;5031751;28;20491;-61
2022/03/07 09:31:56;;;;;;;28.98;17.27;;;;;;;3.13;100.00;90401.09;5032055;28;20033;-62
2022/03/07 09:34:21;;;;;;;42.03;25.23;;;;;;;3.30;100.00;90403.31;5031892;28;20458;-61
2022/03/07 09:36:47;;;;;;;22.27;13.25;;;;;;;3.85;100.00;90406.44;5031546;28;20476;-61
2022/03/07 09:39:12;;;;;;;21.73;12.48;;;;;;;4.04;95.29;90395.97;5031739;28;20052;-60
2022/03/07 09:41:41;;;;;;;27.08;16.58;;;;;;;4.11;91.31;90384.03;5031306;28;20101;-60
2022/03/07 09:44:07;;;;;;;16.17;9.70;;;;;;;4.13;88.89;90392.44;5031623;28;20033;-61
2022/03/07 09:46:32;;;;;;;22.92;13.48;;;;;;;4.55;90.64;90392.66;5031601;28;20495;-61
2022/03/07 09:48:58;;;;;;;18.75;12.32;;;;;;;4.53;88.16;90395.56;5031652;28;20434;-61
2022/03/07 09:51:23;;;;;;;47.47;28.42;;;;;;;4.58;89.40;90402.66;5013752;28;20061;-61
2022/03/07 09:53:49;;;;;;;22.40;13.77;;;;;;;4.63;87.75;90397.28;5031316;28;20029;-62
2022/03/07 09:56:14;;;;;;;23.90;14.65;;;;;;;4.18;89.32;90399.47;5031270;28;20029;-62
2022/03/07 09:58:40;;;;;;;35.15;20.50;;;;;;;4.56;90.10;90396.84;5030865;28;20495;-61
2022/03/07 10:01:13;;;;;;;41.17;25.25;;;;;;;4.78;89.98;90397.06;5031403;28;20502;-61
2022/03/07 10:03:39;;;;;;;14.00;10.27;;;;;;;5.32;85.25;90385.91;5031641;28;20033;-61
2022/03/07 10:06:15;;;;;;;34.47;19.55;;;;;;;4.77;84.36;90395.50;5031211;28;20222;-61
2022/03/07 10:08:58;;;;;;;21.58;13.40;;;;;;;4.15;89.36;90397.41;5031151;28;20040;-61
2022/03/07 10:11:24;;;;;;;37.72;21.58;;;;;;;4.37;91.33;90399.50;5030751;28;20124;-62
2022/03/07 10:14:10;;;;;;;15.20;9.88;;;;;;;3.63;92.02;90396.44;5031006;28;20061;-62
2022/03/07 10:16:43;;;;;;;17.67;10.80;;;;;;;3.65;94.76;90401.41;5030620;28;20160;-61
2022/03/07 10:19:11;;;;;;;22.00;12.80;;;;;;;4.30;93.19;90399.06;5031097;28;20614;-61
2022/03/07 10:21:45;;;;;;;44.33;25.48;;;;;;;4.28;90.81;90396.72;5031136;28;20025;-62
2022/03/07 10:24:10;;;;;;;22.52;13.60;;;;;;;4.62;88.35;90393.09;5031099;28;20029;-62
2022/03/07 10:26:36;;;;;;;35.67;20.27;;;;;;;5.36;85.57;90396.66;5029552;28;20075;-62
2022/03/07 10:29:04;;;;;;;25.98;15.23;;;;;;;4.39;88.90;90384.19;5030958;28;20052;-62
2022/03/07 10:31:31;;;;;;;21.13;14.07;;;;;;;4.95;87.11;90392.06;5030718;28;20033;-61
2022/03/07 10:34:08;;;;;;;31.27;19.73;;;;;;;5.02;84.05;90395.09;5030650;28;20526;-61
2022/03/07 10:36:36;;;;;;;17.42;11.23;;;;;;;5.06;81.53;90395.34;5030649;28;20075;-61
2022/03/07 10:39:07;;;;;;;27.77;17.98;;;;;;;4.94;83.32;90392.34;5030810;28;20033;-61
2022/03/07 10:41:41;;;;;;;17.00;11.00;;;;;;;4.89;84.95;90381.88;5030373;28;20048;-61
2022/03/07 10:44:10;;;;;;;13.93;9.68;;;;;;;4.82;85.96;90379.63;5030643;28;20026;-63
2022/03/07 10:46:36;;;;;;;16.90;11.57;;;;;;;4.39;85.03;90384.97;5027624;28;20045;-62
2022/03/07 10:49:02;;;;;;;28.00;18.75;;;;;;;4.44;85.69;90382.28;5030273;28;20415;-62
2022/03/07 10:51:28;;;;;;;40.00;24.73;;;;;;;5.09;85.52;90374.44;5030577;28;20104;-62
2022/03/07 10:53:54;;;;;;;20.45;14.38;;;;;;;5.61;81.92;90377.00;5030395;28;20029;-62
2022/03/07 10:56:21;;;;;;;20.35;14.25;;;;;;;5.47;81.08;90376.19;5030079;28;20091;-62
2022/03/07 10:58:55;;;;;;;20.02;13.30;;;;;;;5.71;81.23;90374.19;5030121;28;20073;-62
2022/03/07 11:01:32;;;;;;;22.77;14.90;;;;;;;5.09;80.51;90371.03;5030535;28;20025;-63
2022/03/07 11:03:58;;;;;;;27.77;17.00;;;;;;;5.91;80.08;90380.94;5030350;28;20525;-62
2022/03/07 11:06:28;;;;;;;18.05;11.98;;;;;;;5.13;79.03;90376.50;5012732;28;20037;-62
2022/03/07 11:08:54;;;;;;;20.35;13.57;;;;;;;5.08;81.09;90378.16;5030231;28;20098;-62
2022/03/07 11:11:21;;;;;;;30.08;19.05;;;;;;;5.79;79.47;90376.13;5029956;28;20483;-63
2022/03/07 11:13:51;;;;;;;28.73;19.05;;;;;;;5.69;78.58;90374.47;5030273;28;20021;-63